Time;durP1;ratioP1;P1;durP2;ratioP2;P2;SDS_P1;SDS_P2;PMS_P1;PMS_P2;Temp;Humidity;BMP_temperature;BMP_pressure;BME280_temperature;BME280_humidity;BME280_pressure;Samples;Min_cycle;Max_cycle;Signal;HPM_P1;HPM_P2
2022/10/19 00:02:12;;;;;;;14.52;5.53;;;;;;;;;;10316627;28;20065;-76
2022/10/19 00:07:12;;;;;;;9.65;5.65;;;;;;;;;;10283017;28;20023;-84
2022/10/19 00:12:12;;;;;;;9.52;6.20;;;;;;;;;;10289769;28;20089;-79
2022/10/19 00:17:12;;;;;;;14.30;5.78;;;;;;;;;;10323427;28;20511;-80
2022/10/19 00:22:13;;;;;;;13.38;6.28;;;;;;;;;;10322871;28;20030;-76
2022/10/19 00:27:13;;;;;;;11.40;6.78;;;;;;;;;;10295827;28;20489;-75
2022/10/19 00:32:14;;;;;;;13.57;5.87;;;;;;;;;;10291793;28;20022;-82
2022/10/19 00:37:14;;;;;;;14.98;6.45;;;;;;;;;;10370269;28;20049;-74
2022/10/19 00:42:14;;;;;;;12.93;5.65;;;;;;;;;;10340861;28;20466;-74
2022/10/19 00:47:15;;;;;;;12.57;5.68;;;;;;;;;;10330668;28;20117;-79
2022/10/19 00:52:17;;;;;;;10.68;5.63;;;;;;;;;;10330525;28;20023;-78
2022/10/19 00:57:17;;;;;;;12.15;6.68;;;;;;;;;;10330475;28;20037;-78
2022/10/19 01:02:18;;;;;;;9.02;5.90;;;;;;;;;;10331375;28;20054;-79
2022/10/19 01:07:19;;;;;;;7.60;5.13;;;;;;;;;;10310414;28;20038;-74
2022/10/19 01:12:19;;;;;;;13.63;6.65;;;;;;;;;;10318250;28;20045;-74
2022/10/19 01:17:19;;;;;;;10.77;5.82;;;;;;;;;;10298763;28;20023;-75
2022/10/19 01:22:19;;;;;;;12.35;5.70;;;;;;;;;;10298687;28;20029;-82
2022/10/19 01:27:35;;;;;;;11.27;5.13;;;;;;;;;;10329681;28;20034;-82
2022/10/19 01:32:38;;;;;;;17.55;6.07;;;;;;;;;;10299234;28;20042;-77
2022/10/19 01:37:57;;;;;;;15.27;6.90;;;;;;;;;;10303709;28;20022;-78
2022/10/19 01:42:57;;;;;;;17.00;6.03;;;;;;;;;;10328486;28;20022;-76
2022/10/19 01:48:04;;;;;;;16.48;6.72;;;;;;;;;;10329032;28;20030;-74
2022/10/19 01:53:05;;;;;;;15.55;6.15;;;;;;;;;;10328529;28;20400;-76
2022/10/19 01:58:07;;;;;;;7.95;5.13;;;;;;;;;;10327973;28;20014;-75
2022/10/19 02:03:09;;;;;;;9.85;5.55;;;;;;;;;;10327873;28;20025;-80
2022/10/19 02:08:12;;;;;;;10.68;5.57;;;;;;;;;;10312101;28;20053;-75
2022/10/19 02:13:14;;;;;;;13.07;5.80;;;;;;;;;;10311019;28;20046;-73
2022/10/19 02:18:15;;;;;;;10.27;5.50;;;;;;;;;;10327328;28;20129;-74
2022/10/19 02:23:17;;;;;;;11.32;5.80;;;;;;;;;;10326973;28;20475;-74
2022/10/19 02:28:18;;;;;;;10.40;6.07;;;;;;;;;;10314784;28;20493;-84
2022/10/19 02:33:18;;;;;;;10.83;6.47;;;;;;;;;;10304192;28;20026;-77
2022/10/19 02:38:20;;;;;;;8.88;4.85;;;;;;;;;;10331401;28;20015;-81
2022/10/19 02:43:22;;;;;;;7.55;4.45;;;;;;;;;;10326467;28;20021;-74
2022/10/19 02:48:24;;;;;;;16.67;6.15;;;;;;;;;;10328164;28;20136;-80
2022/10/19 02:53:24;;;;;;;8.13;5.15;;;;;;;;;;10324779;28;20027;-82
2022/10/19 02:58:24;;;;;;;11.77;4.97;;;;;;;;;;10315810;28;20022;-74
2022/10/19 03:03:24;;;;;;;6.93;4.75;;;;;;;;;;10325468;28;20041;-74
2022/10/19 03:08:25;;;;;;;12.07;4.80;;;;;;;;;;10291395;28;20050;-80
2022/10/19 03:13:25;;;;;;;12.13;5.45;;;;;;;;;;10304860;28;20125;-78
2022/10/19 03:18:25;;;;;;;9.95;5.43;;;;;;;;;;10323906;28;20018;-82
2022/10/19 03:23:25;;;;;;;8.73;5.10;;;;;;;;;;10320080;28;20026;-80
2022/10/19 03:28:26;;;;;;;12.75;5.50;;;;;;;;;;10314888;28;20513;-72
2022/10/19 03:33:26;;;;;;;8.93;6.18;;;;;;;;;;10298672;28;20023;-80
2022/10/19 03:38:26;;;;;;;15.50;7.13;;;;;;;;;;10283664;28;20021;-81
2022/10/19 03:43:27;;;;;;;12.25;6.93;;;;;;;;;;10284227;28;20030;-77
2022/10/19 03:48:27;;;;;;;14.60;7.07;;;;;;;;;;10290686;28;20085;-76
2022/10/19 03:53:30;;;;;;;13.07;6.65;;;;;;;;;;10289949;28;20035;-74
2022/10/19 03:58:32;;;;;;;14.15;7.10;;;;;;;;;;10296064;28;20026;-75
2022/10/19 04:03:32;;;;;;;12.77;6.95;;;;;;;;;;10290863;28;20109;-79
2022/10/19 04:08:32;;;;;;;16.25;7.15;;;;;;;;;;10307368;28;20050;-75
2022/10/19 04:13:33;;;;;;;16.57;6.90;;;;;;;;;;10323135;28;20119;-80
2022/10/19 04:18:33;;;;;;;9.45;7.25;;;;;;;;;;10322551;28;20295;-79
2022/10/19 04:23:34;;;;;;;19.15;8.57;;;;;;;;;;10301263;28;20168;-75
2022/10/19 04:28:34;;;;;;;23.45;9.55;;;;;;;;;;10319941;28;20495;-75
2022/10/19 04:33:36;;;;;;;21.60;9.25;;;;;;;;;;10301642;28;20023;-75
2022/10/19 04:38:37;;;;;;;19.90;8.73;;;;;;;;;;10320753;28;20023;-75
2022/10/19 04:43:37;;;;;;;16.75;7.32;;;;;;;;;;10318898;28;20022;-75
2022/10/19 04:48:38;;;;;;;10.45;5.75;;;;;;;;;;10321690;28;20505;-83
2022/10/19 04:53:39;;;;;;;13.38;6.35;;;;;;;;;;10298861;28;20026;-83
2022/10/19 04:58:40;;;;;;;13.63;5.25;;;;;;;;;;10320648;28;20056;-75
2022/10/19 05:03:40;;;;;;;9.15;4.90;;;;;;;;;;10319099;28;20374;-78
2022/10/19 05:08:41;;;;;;;9.48;5.68;;;;;;;;;;10284670;28;20097;-80
2022/10/19 05:13:42;;;;;;;11.05;5.07;;;;;;;;;;10303201;28;20023;-76
2022/10/19 05:18:45;;;;;;;9.77;5.28;;;;;;;;;;10279899;28;20449;-74
2022/10/19 05:23:45;;;;;;;15.68;7.50;;;;;;;;;;10301818;28;20034;-78
2022/10/19 05:28:50;;;;;;;14.45;6.97;;;;;;;;;;10306896;28;20092;-74
2022/10/19 05:33:50;;;;;;;10.88;5.68;;;;;;;;;;10311943;28;20042;-82
2022/10/19 05:38:51;;;;;;;18.98;7.53;;;;;;;;;;10327943;28;20015;-74
2022/10/19 05:43:53;;;;;;;19.15;6.50;;;;;;;;;;10302451;28;20138;-75
2022/10/19 05:48:54;;;;;;;15.77;7.40;;;;;;;;;;10327505;28;20034;-76
2022/10/19 05:53:54;;;;;;;12.18;7.63;;;;;;;;;;10327854;28;20064;-75
2022/10/19 05:58:55;;;;;;;27.13;10.55;;;;;;;;;;10317900;28;20026;-76
2022/10/19 06:03:56;;;;;;;29.55;10.13;;;;;;;;;;10327440;28;20018;-78
2022/10/19 06:08:57;;;;;;;24.52;9.45;;;;;;;;;;10326800;28;20053;-80
2022/10/19 06:13:58;;;;;;;17.77;9.55;;;;;;;;;;10287957;28;20582;-78
2022/10/19 06:18:59;;;;;;;21.73;10.00;;;;;;;;;;10291976;28;20018;-76
2022/10/19 06:24:01;;;;;;;16.52;8.88;;;;;;;;;;10326992;28;20018;-80
2022/10/19 06:29:02;;;;;;;24.27;8.93;;;;;;;;;;10311580;28;20563;-76
2022/10/19 06:34:02;;;;;;;16.70;7.65;;;;;;;;;;10325166;28;20032;-74
2022/10/19 06:39:03;;;;;;;16.98;7.53;;;;;;;;;;10326285;28;20030;-80
2022/10/19 06:44:03;;;;;;;19.10;9.47;;;;;;;;;;10325448;28;20031;-76
2022/10/19 06:49:03;;;;;;;31.98;10.25;;;;;;;;;;10311012;28;20018;-75
2022/10/19 06:54:03;;;;;;;27.90;11.38;;;;;;;;;;10325094;28;20034;-75
2022/10/19 06:59:04;;;;;;;21.38;10.10;;;;;;;;;;10328683;28;20022;-84
2022/10/19 07:04:04;;;;;;;22.95;10.25;;;;;;;;;;10325099;28;20023;-77
2022/10/19 07:09:04;;;;;;;17.87;9.63;;;;;;;;;;10324097;28;20050;-77
2022/10/19 07:14:04;;;;;;;19.52;10.68;;;;;;;;;;10325028;28;20220;-83
2022/10/19 07:19:05;;;;;;;21.73;9.95;;;;;;;;;;10324161;28;20026;-76
2022/10/19 07:24:05;;;;;;;19.70;10.35;;;;;;;;;;10323701;28;20041;-77
2022/10/19 07:29:05;;;;;;;29.60;10.73;;;;;;;;;;10325489;28;20505;-76
2022/10/19 07:34:06;;;;;;;25.10;10.75;;;;;;;;;;10325142;28;20034;-75
2022/10/19 07:39:06;;;;;;;32.78;11.98;;;;;;;;;;10323777;28;20265;-75
2022/10/19 07:44:06;;;;;;;25.33;10.45;;;;;;;;;;10324003;28;20026;-77
2022/10/19 07:49:08;;;;;;;30.30;10.35;;;;;;;;;;10323583;28;20015;-83
2022/10/19 07:54:09;;;;;;;25.08;11.18;;;;;;;;;;10323610;28;20452;-83
2022/10/19 07:59:09;;;;;;;36.87;11.87;;;;;;;;;;10323352;28;20069;-77
2022/10/19 08:04:09;;;;;;;25.70;12.32;;;;;;;;;;10307322;28;20029;-75
2022/10/19 08:09:10;;;;;;;23.77;10.60;;;;;;;;;;10306553;28;20053;-82
2022/10/19 08:14:10;;;;;;;27.60;10.68;;;;;;;;;;10323919;28;20026;-82
2022/10/19 08:19:14;;;;;;;24.33;11.63;;;;;;;;;;10323044;28;20486;-83
2022/10/19 08:24:16;;;;;;;25.98;10.98;;;;;;;;;;10323440;28;20082;-83
2022/10/19 08:29:17;;;;;;;25.92;12.90;;;;;;;;;;10324365;28;20050;-83
2022/10/19 08:34:18;;;;;;;23.48;11.07;;;;;;;;;;10322516;28;20105;-75
2022/10/19 08:39:18;;;;;;;27.40;11.95;;;;;;;;;;10322683;28;20022;-83
2022/10/19 08:44:19;;;;;;;29.20;11.68;;;;;;;;;;10323952;28;20031;-76
2022/10/19 08:49:20;;;;;;;22.07;10.23;;;;;;;;;;10323510;28;20022;-83
2022/10/19 08:54:21;;;;;;;25.80;10.85;;;;;;;;;;10322844;28;20010;-77
2022/10/19 08:59:21;;;;;;;19.35;9.73;;;;;;;;;;10330063;28;20503;-76
2022/10/19 09:04:24;;;;;;;16.33;7.18;;;;;;;;;;10329664;28;20022;-77
2022/10/19 09:09:27;;;;;;;19.15;8.70;;;;;;;;;;10329703;28;20484;-79
2022/10/19 09:14:35;;;;;;;15.50;7.20;;;;;;;;;;10329651;28;20026;-77
2022/10/19 09:19:35;;;;;;;16.85;6.45;;;;;;;;;;10329572;28;20477;-76
2022/10/19 09:24:42;;;;;;;14.20;4.13;;;;;;;;;;10305001;28;20062;-75
2022/10/19 09:29:48;;;;;;;11.33;4.53;;;;;;;;;;10289185;28;20492;-82
2022/10/19 09:34:50;;;;;;;14.65;3.88;;;;;;;;;;10330133;28;20020;-76
2022/10/19 09:39:51;;;;;;;11.27;4.43;;;;;;;;;;10329935;28;20485;-75
2022/10/19 09:44:51;;;;;;;9.30;3.97;;;;;;;;;;10312308;28;20029;-82
2022/10/19 09:50:04;;;;;;;10.25;3.08;;;;;;;;;;10292440;28;20464;-76
2022/10/19 09:55:04;;;;;;;11.10;3.40;;;;;;;;;;10290210;28;20113;-81
2022/10/19 10:00:04;;;;;;;12.63;2.60;;;;;;;;;;10331009;28;20086;-77
2022/10/19 10:05:08;;;;;;;8.17;2.60;;;;;;;;;;10328039;28;20025;-78
2022/10/19 10:10:09;;;;;;;7.35;2.58;;;;;;;;;;10326833;28;20896;-84
2022/10/19 10:15:14;;;;;;;5.38;2.35;;;;;;;;;;10327286;28;20113;-82
2022/10/19 10:20:22;;;;;;;13.67;3.53;;;;;;;;;;10301572;28;20025;-76
2022/10/19 10:25:24;;;;;;;8.70;2.08;;;;;;;;;;10312686;28;20838;-82
2022/10/19 10:30:25;;;;;;;11.63;2.72;;;;;;;;;;10326466;28;20499;-77
2022/10/19 10:35:29;;;;;;;5.53;3.22;;;;;;;;;;10310162;28;20026;-75
2022/10/19 10:40:30;;;;;;;3.88;2.13;;;;;;;;;;10300123;28;20497;-77
2022/10/19 10:45:33;;;;;;;6.05;2.97;;;;;;;;;;10293802;28;20026;-77
2022/10/19 10:50:34;;;;;;;6.75;2.83;;;;;;;;;;10320798;28;20520;-84
2022/10/19 10:55:35;;;;;;;5.45;2.55;;;;;;;;;;10292867;28;20030;-76
2022/10/19 11:00:39;;;;;;;4.60;2.10;;;;;;;;;;10326270;28;20026;-77
2022/10/19 11:06:11;;;;;;;5.60;2.45;;;;;;;;;;10305098;28;20082;-78
2022/10/19 11:11:24;;;;;;;5.60;2.40;;;;;;;;;;10248189;28;20532;-85
2022/10/19 11:16:30;;;;;;;3.97;2.00;;;;;;;;;;10313412;28;20220;-76
2022/10/19 11:21:35;;;;;;;4.32;2.03;;;;;;;;;;10323903;28;20105;-77
2022/10/19 11:26:35;;;;;;;10.43;2.88;;;;;;;;;;10325544;28;20485;-81
2022/10/19 11:31:56;;;;;;;10.00;3.63;;;;;;;;;;10338818;28;20037;-77
2022/10/19 11:37:16;;;;;;;8.38;2.53;;;;;;;;;;10325106;28;20034;-77
2022/10/19 11:42:31;;;;;;;7.63;2.50;;;;;;;;;;10312239;28;20038;-76
2022/10/19 11:47:42;;;;;;;5.43;2.53;;;;;;;;;;10324246;28;20026;-75
2022/10/19 11:52:45;;;;;;;3.65;2.25;;;;;;;;;;10324856;28;20027;-82
2022/10/19 11:57:49;;;;;;;7.32;2.90;;;;;;;;;;10325076;28;20337;-74
2022/10/19 12:03:08;;;;;;;5.55;2.92;;;;;;;;;;10309780;28;20056;-78
2022/10/19 12:08:12;;;;;;;6.32;2.58;;;;;;;;;;10323250;28;20046;-78
2022/10/19 12:13:14;;;;;;;12.02;3.42;;;;;;;;;;10315638;28;20456;-76
2022/10/19 12:18:28;;;;;;;7.22;3.45;;;;;;;;;;10312404;28;20022;-77
2022/10/19 12:23:36;;;;;;;7.18;2.97;;;;;;;;;;10322643;28;20501;-76
2022/10/19 12:28:39;;;;;;;11.43;2.78;;;;;;;;;;10322580;28;20027;-78
2022/10/19 12:33:41;;;;;;;8.27;3.53;;;;;;;;;;10330991;28;20026;-77
2022/10/19 12:39:00;;;;;;;9.02;2.97;;;;;;;;;;10322850;28;20031;-77
2022/10/19 12:44:00;;;;;;;12.43;3.42;;;;;;;;;;10331340;28;20018;-76
2022/10/19 12:49:19;;;;;;;6.03;3.17;;;;;;;;;;10306483;28;20035;-77
2022/10/19 12:54:23;;;;;;;6.43;2.80;;;;;;;;;;10330749;28;20049;-75
2022/10/19 12:59:25;;;;;;;7.60;2.83;;;;;;;;;;10329541;28;20034;-83
2022/10/19 13:04:27;;;;;;;5.25;2.95;;;;;;;;;;10316044;28;20019;-76
2022/10/19 13:09:35;;;;;;;10.57;3.65;;;;;;;;;;10320947;28;20043;-76
2022/10/19 13:14:49;;;;;;;8.65;3.30;;;;;;;;;;10304200;28;20014;-75
2022/10/19 13:19:49;;;;;;;7.35;2.88;;;;;;;;;;10310441;28;20109;-75
2022/10/19 13:25:10;;;;;;;6.30;2.78;;;;;;;;;;10310084;28;20031;-77
2022/10/19 13:30:33;;;;;;;9.88;3.15;;;;;;;;;;10283038;28;20030;-78
2022/10/19 13:35:35;;;;;;;7.82;3.28;;;;;;;;;;10303422;28;20031;-79
2022/10/19 13:40:55;;;;;;;8.32;3.47;;;;;;;;;;10319928;28;20097;-71
2022/10/19 13:46:00;;;;;;;8.48;3.58;;;;;;;;;;10333008;28;20073;-80
2022/10/19 13:51:13;;;;;;;9.82;3.58;;;;;;;;;;10327303;28;20472;-77
2022/10/19 13:56:26;;;;;;;8.93;3.50;;;;;;;;;;10338915;28;20030;-81
2022/10/19 14:01:40;;;;;;;10.90;3.90;;;;;;;;;;10345474;28;20030;-75
2022/10/19 14:06:46;;;;;;;9.07;3.53;;;;;;;;;;10343407;28;20030;-77
2022/10/19 14:11:50;;;;;;;7.32;3.42;;;;;;;;;;10344912;28;20656;-81
2022/10/19 14:16:55;;;;;;;12.10;4.15;;;;;;;;;;10346988;28;20018;-82
2022/10/19 14:21:56;;;;;;;14.20;3.65;;;;;;;;;;10341949;28;20416;-81
2022/10/19 14:27:01;;;;;;;15.43;5.00;;;;;;;;;;10332779;28;20115;-83
2022/10/19 14:32:02;;;;;;;13.75;4.38;;;;;;;;;;10344856;28;20153;-84
2022/10/19 14:37:02;;;;;;;7.85;4.28;;;;;;;;;;10327892;28;20128;-78
2022/10/19 14:42:04;;;;;;;11.95;3.83;;;;;;;;;;10345972;28;20030;-75
2022/10/19 14:47:16;;;;;;;11.65;4.22;;;;;;;;;;10345049;28;20038;-75
2022/10/19 14:52:24;;;;;;;12.88;4.10;;;;;;;;;;10335637;28;20027;-81
2022/10/19 14:57:30;;;;;;;14.52;4.60;;;;;;;;;;10344956;28;20041;-78
2022/10/19 15:02:43;;;;;;;9.45;4.25;;;;;;;;;;10339604;28;20133;-82
2022/10/19 15:07:43;;;;;;;10.07;4.35;;;;;;;;;;10343467;28;20058;-75
2022/10/19 15:12:44;;;;;;;13.60;4.50;;;;;;;;;;10336200;28;20469;-75
2022/10/19 15:17:50;;;;;;;10.85;5.45;;;;;;;;;;10339871;28;20516;-80
2022/10/19 15:22:50;;;;;;;15.23;4.55;;;;;;;;;;10321335;28;20083;-77
2022/10/19 15:27:52;;;;;;;11.10;4.60;;;;;;;;;;10331403;28;20056;-81
2022/10/19 15:33:02;;;;;;;15.35;6.25;;;;;;;;;;10332073;28;20141;-75
2022/10/19 15:38:10;;;;;;;19.42;7.78;;;;;;;;;;10311175;28;20386;-72
2022/10/19 15:43:43;;;;;;;10.43;5.75;;;;;;;;;;10313216;28;20022;-79
2022/10/19 15:48:47;;;;;;;14.55;5.70;;;;;;;;;;10293595;28;20143;-76
2022/10/19 15:53:49;;;;;;;16.63;6.22;;;;;;;;;;10328044;28;20108;-78
2022/10/19 15:58:50;;;;;;;12.40;5.95;;;;;;;;;;10330717;28;20487;-78
2022/10/19 16:03:51;;;;;;;9.13;5.70;;;;;;;;;;10319079;28;20113;-78
2022/10/19 16:08:52;;;;;;;16.45;6.93;;;;;;;;;;10339293;28;20061;-79
2022/10/19 16:13:53;;;;;;;11.18;6.00;;;;;;;;;;10337330;28;20544;-80
2022/10/19 16:18:54;;;;;;;10.00;7.00;;;;;;;;;;10337964;28;20027;-80
2022/10/19 16:23:54;;;;;;;13.48;7.47;;;;;;;;;;10323012;28;20516;-78
2022/10/19 16:28:54;;;;;;;13.73;6.90;;;;;;;;;;10314240;28;20181;-73
2022/10/19 16:33:55;;;;;;;21.27;8.47;;;;;;;;;;10328653;28;20086;-79
2022/10/19 16:38:55;;;;;;;16.48;8.07;;;;;;;;;;10338605;28;20026;-78
2022/10/19 16:43:56;;;;;;;11.03;7.03;;;;;;;;;;10322379;28;20390;-78
2022/10/19 16:48:56;;;;;;;19.95;7.75;;;;;;;;;;10331326;28;20110;-79
2022/10/19 16:53:57;;;;;;;20.10;8.43;;;;;;;;;;10335473;28;20026;-73
2022/10/19 16:58:59;;;;;;;13.00;7.65;;;;;;;;;;10322433;28;20037;-78
2022/10/19 17:03:59;;;;;;;12.45;7.32;;;;;;;;;;10310568;28;20033;-78
2022/10/19 17:09:00;;;;;;;13.73;7.65;;;;;;;;;;10327739;28;20095;-80
2022/10/19 17:14:02;;;;;;;15.07;8.30;;;;;;;;;;10335784;28;20036;-79
2022/10/19 17:19:03;;;;;;;21.80;8.18;;;;;;;;;;10332103;28;20030;-79
2022/10/19 17:24:05;;;;;;;16.63;9.25;;;;;;;;;;10323901;28;20037;-80
2022/10/19 17:29:05;;;;;;;22.45;8.60;;;;;;;;;;10327491;28;20586;-81
2022/10/19 17:34:07;;;;;;;17.87;9.13;;;;;;;;;;10337882;28;20030;-80
2022/10/19 17:39:10;;;;;;;16.00;8.73;;;;;;;;;;10339553;28;20018;-72
2022/10/19 17:44:11;;;;;;;13.20;8.23;;;;;;;;;;10334036;28;20137;-78
2022/10/19 17:49:11;;;;;;;13.00;7.72;;;;;;;;;;10329110;28;20026;-80
2022/10/19 17:54:13;;;;;;;16.33;8.63;;;;;;;;;;10342998;28;20057;-77
2022/10/19 17:59:13;;;;;;;14.45;8.82;;;;;;;;;;10321713;28;20453;-77
2022/10/19 18:04:14;;;;;;;15.77;8.65;;;;;;;;;;10317355;28;20035;-76
2022/10/19 18:09:14;;;;;;;18.27;9.50;;;;;;;;;;10320804;28;20058;-80
2022/10/19 18:14:15;;;;;;;15.77;9.73;;;;;;;;;;10323802;28;20121;-74
2022/10/19 18:19:15;;;;;;;17.63;9.38;;;;;;;;;;10322221;28;20048;-78
2022/10/19 18:24:18;;;;;;;18.75;9.55;;;;;;;;;;10330837;28;20030;-74
2022/10/19 18:29:23;;;;;;;16.13;9.50;;;;;;;;;;10338951;28;20065;-75
2022/10/19 18:34:24;;;;;;;17.10;9.15;;;;;;;;;;10319952;28;20034;-75
2022/10/19 18:39:24;;;;;;;16.45;10.18;;;;;;;;;;10337467;28;20019;-75
2022/10/19 18:44:25;;;;;;;15.50;9.20;;;;;;;;;;10324003;28;20041;-73
2022/10/19 18:49:25;;;;;;;16.58;9.65;;;;;;;;;;10321825;28;20097;-80
2022/10/19 18:54:26;;;;;;;17.45;9.70;;;;;;;;;;10325191;28;20030;-80
2022/10/19 18:59:27;;;;;;;16.45;9.20;;;;;;;;;;10323223;28;20025;-78
2022/10/19 19:04:27;;;;;;;16.42;9.82;;;;;;;;;;10320653;28;20061;-77
2022/10/19 19:09:30;;;;;;;19.50;9.35;;;;;;;;;;10327514;28;20512;-78
2022/10/19 19:14:30;;;;;;;21.17;10.40;;;;;;;;;;10321897;28;20041;-74
2022/10/19 19:19:30;;;;;;;22.00;10.77;;;;;;;;;;10320251;28;20021;-78
2022/10/19 19:24:31;;;;;;;19.93;11.47;;;;;;;;;;10328191;28;20398;-75
2022/10/19 19:29:32;;;;;;;18.13;9.85;;;;;;;;;;10316107;28;20034;-74
2022/10/19 19:34:34;;;;;;;18.95;10.02;;;;;;;;;;10314752;28;20030;-81
2022/10/19 19:39:36;;;;;;;23.60;9.98;;;;;;;;;;10327719;28;20236;-76
2022/10/19 19:44:36;;;;;;;28.52;11.68;;;;;;;;;;10334383;28;20034;-74
2022/10/19 19:49:37;;;;;;;18.23;10.35;;;;;;;;;;10337040;28;20018;-74
2022/10/19 19:54:37;;;;;;;17.10;11.00;;;;;;;;;;10332317;28;20026;-74
2022/10/19 19:59:37;;;;;;;16.65;9.23;;;;;;;;;;10319115;28;20857;-76
2022/10/19 20:04:37;;;;;;;16.98;10.27;;;;;;;;;;10327848;28;20033;-74
2022/10/19 20:09:38;;;;;;;14.38;9.70;;;;;;;;;;10340247;28;20181;-76
2022/10/19 20:14:39;;;;;;;18.02;11.32;;;;;;;;;;10333710;28;20034;-79
2022/10/19 20:19:39;;;;;;;22.35;11.32;;;;;;;;;;10329128;28;20582;-78
2022/10/19 20:24:41;;;;;;;17.98;11.18;;;;;;;;;;10334567;28;20057;-82
2022/10/19 20:29:41;;;;;;;19.23;11.20;;;;;;;;;;10322711;28;20691;-78
2022/10/19 20:34:42;;;;;;;18.27;11.02;;;;;;;;;;10328723;28;20049;-79
2022/10/19 20:39:42;;;;;;;20.35;11.45;;;;;;;;;;10338685;28;20029;-76
2022/10/19 20:44:43;;;;;;;20.75;12.52;;;;;;;;;;10310347;28;20076;-82
2022/10/19 20:49:43;;;;;;;24.15;13.30;;;;;;;;;;10319867;28;20022;-82
2022/10/19 20:54:43;;;;;;;26.35;11.95;;;;;;;;;;10324895;28;20476;-77
2022/10/19 20:59:44;;;;;;;16.27;11.82;;;;;;;;;;10322435;28;20477;-84
2022/10/19 21:04:44;;;;;;;17.95;12.15;;;;;;;;;;10316422;28;20034;-73
2022/10/19 21:09:45;;;;;;;20.17;12.93;;;;;;;;;;10285153;28;20042;-74
2022/10/19 21:14:45;;;;;;;21.30;13.32;;;;;;;;;;10285349;28;20110;-75
2022/10/19 21:19:45;;;;;;;18.13;11.90;;;;;;;;;;10300640;28;20062;-81
2022/10/19 21:24:45;;;;;;;18.80;12.77;;;;;;;;;;10317597;28;20026;-75
2022/10/19 21:29:45;;;;;;;24.98;15.60;;;;;;;;;;10312628;28;20019;-81
2022/10/19 21:34:46;;;;;;;24.95;14.23;;;;;;;;;;10325137;28;20080;-84
2022/10/19 21:39:46;;;;;;;33.30;14.90;;;;;;;;;;10291441;28;20015;-80
2022/10/19 21:44:46;;;;;;;19.20;12.95;;;;;;;;;;10290863;28;20388;-82
2022/10/19 21:49:47;;;;;;;23.42;14.20;;;;;;;;;;10288485;28;20114;-82
2022/10/19 21:54:47;;;;;;;36.17;14.95;;;;;;;;;;10304021;28;20911;-74
2022/10/19 21:59:47;;;;;;;29.70;14.90;;;;;;;;;;10291777;28;20441;-77
2022/10/19 22:04:47;;;;;;;27.63;15.95;;;;;;;;;;10324128;28;20480;-79
2022/10/19 22:09:49;;;;;;;22.55;14.70;;;;;;;;;;10323278;28;20491;-82
2022/10/19 22:14:49;;;;;;;26.52;17.35;;;;;;;;;;10322001;28;20021;-75
2022/10/19 22:19:49;;;;;;;26.27;18.52;;;;;;;;;;10308910;28;20034;-80
2022/10/19 22:24:50;;;;;;;33.58;18.50;;;;;;;;;;10323005;28;20034;-76
2022/10/19 22:29:50;;;;;;;27.50;16.98;;;;;;;;;;10295609;28;20078;-75
2022/10/19 22:34:51;;;;;;;32.80;18.27;;;;;;;;;;10288889;28;20037;-80
2022/10/19 22:39:51;;;;;;;30.42;16.70;;;;;;;;;;10321504;28;20026;-80
2022/10/19 22:44:52;;;;;;;29.17;16.83;;;;;;;;;;10284520;28;20018;-74
2022/10/19 22:49:52;;;;;;;29.13;17.67;;;;;;;;;;10322322;28;20125;-82
2022/10/19 22:54:52;;;;;;;29.23;18.40;;;;;;;;;;10320872;28;20026;-81
2022/10/19 22:59:52;;;;;;;35.35;19.00;;;;;;;;;;10293586;28;20510;-82
2022/10/19 23:04:53;;;;;;;31.17;18.88;;;;;;;;;;10322815;28;20034;-75
2022/10/19 23:09:53;;;;;;;30.80;19.25;;;;;;;;;;10321378;28;20050;-75
2022/10/19 23:14:53;;;;;;;31.05;18.63;;;;;;;;;;10310288;28;20030;-74
2022/10/19 23:19:53;;;;;;;36.78;19.52;;;;;;;;;;10320921;28;20021;-78
2022/10/19 23:24:54;;;;;;;31.77;18.83;;;;;;;;;;10321224;28;20022;-74
2022/10/19 23:29:54;;;;;;;30.48;19.35;;;;;;;;;;10315216;28;20021;-80
2022/10/19 23:34:54;;;;;;;34.83;20.40;;;;;;;;;;10305719;28;20077;-76
2022/10/19 23:39:54;;;;;;;33.08;20.10;;;;;;;;;;10319633;28;20019;-75
2022/10/19 23:44:55;;;;;;;33.60;21.10;;;;;;;;;;10319706;28;20081;-80
2022/10/19 23:49:55;;;;;;;37.35;21.02;;;;;;;;;;10320626;28;20023;-76
2022/10/19 23:54:55;;;;;;;34.47;20.85;;;;;;;;;;10320657;28;20026;-80
2022/10/19 23:59:55;;;;;;;33.42;21.60;;;;;;;;;;10292991;28;20026;-74
